createdAt,value
2022-12-04T00:01:29.692Z,100643.25
2022-12-04T00:04:00.094Z,100635.66
2022-12-04T00:06:29.329Z,100615.34
2022-12-04T00:08:58.144Z,100625.72
2022-12-04T00:11:30.696Z,100651.69
2022-12-04T00:14:06.206Z,100653.31
2022-12-04T00:16:35.549Z,100630.06
2022-12-04T00:19:04.134Z,100587.69
2022-12-04T00:21:32.180Z,100644.84
2022-12-04T00:24:00.536Z,100644.47
2022-12-04T00:26:31.141Z,100643.56
2022-12-04T00:28:59.166Z,100633.19
2022-12-04T00:31:29.716Z,100642.84
2022-12-04T00:33:58.555Z,100649.41
2022-12-04T00:36:29.366Z,100638.53
2022-12-04T00:38:57.539Z,100606.72
2022-12-04T00:41:27.929Z,100589.84
2022-12-04T00:43:57.462Z,100629.59
2022-12-04T00:46:25.666Z,100601.09
2022-12-04T00:48:53.882Z,100610.66
2022-12-04T00:51:25.105Z,100633.03
2022-12-04T00:53:53.798Z,100598.09
2022-12-04T00:56:24.563Z,100615.72
2022-12-04T00:58:54.076Z,100628.63
2022-12-04T01:01:24.840Z,100625.28
2022-12-04T01:03:54.311Z,100622.66
2022-12-04T01:06:24.297Z,100611.31
2022-12-04T01:08:54.933Z,100594.31
2022-12-04T01:11:31.086Z,100561.56
2022-12-04T01:14:00.569Z,100636.34
2022-12-04T01:16:32.373Z,100641.88
2022-12-04T01:19:03.075Z,100649.56
2022-12-04T01:21:31.207Z,100609.91
2022-12-04T01:24:00.499Z,100642.03
2022-12-04T01:26:30.009Z,100600.81
2022-12-04T01:28:58.266Z,100617.09
2022-12-04T01:31:27.485Z,100611.72
2022-12-04T01:33:57.230Z,100622.19
2022-12-04T01:36:30.687Z,100568.44
2022-12-04T01:39:00.499Z,100624.34
2022-12-04T01:44:34.349Z,100584.88
2022-12-04T01:47:14.600Z,100577.47
2022-12-04T01:49:47.693Z,100613.00
2022-12-04T01:59:24.832Z,100551.25
2022-12-04T02:01:59.319Z,100543.31
2022-12-04T02:14:27.862Z,100609.41
2022-12-04T02:17:04.127Z,100623.00
2022-12-04T02:19:52.227Z,100623.72
2022-12-04T02:22:35.159Z,100603.19
2022-12-04T02:25:14.915Z,100575.69
2022-12-04T02:28:02.340Z,100605.31
2022-12-04T02:30:32.410Z,100588.28
2022-12-04T02:33:06.008Z,100583.13
2022-12-04T02:35:38.624Z,100575.81
2022-12-04T02:38:14.129Z,100598.34
2022-12-04T02:40:52.617Z,100606.13
2022-12-04T02:43:29.315Z,100602.91
2022-12-04T02:46:02.497Z,100583.66
2022-12-04T02:48:34.009Z,100566.50
2022-12-04T02:51:04.710Z,100587.69
2022-12-04T02:53:39.846Z,100580.53
2022-12-04T02:56:09.424Z,100587.38
2022-12-04T02:58:43.478Z,100572.97
2022-12-04T03:01:20.538Z,100555.75
2022-12-04T03:03:54.841Z,100588.81
2022-12-04T03:06:25.112Z,100571.69
2022-12-04T03:08:59.746Z,100570.69
2022-12-04T03:11:32.267Z,100577.25
2022-12-04T03:14:08.068Z,100577.16
2022-12-04T03:16:40.706Z,100588.06
2022-12-04T03:19:11.970Z,100576.09
2022-12-04T03:21:47.610Z,100588.28
2022-12-04T03:24:21.424Z,100553.66
2022-12-04T03:26:53.253Z,100588.00
2022-12-04T03:29:24.812Z,100555.91
2022-12-04T03:31:58.869Z,100601.56
2022-12-04T03:34:34.408Z,100603.22
2022-12-04T03:37:09.238Z,100571.50
2022-12-04T03:39:43.056Z,100553.00
2022-12-04T03:42:17.687Z,100596.03
2022-12-04T03:44:50.732Z,100599.84
2022-12-04T03:47:21.978Z,100564.56
2022-12-04T03:49:54.071Z,100591.78
2022-12-04T03:52:25.930Z,100581.97
2022-12-04T03:54:59.685Z,100568.09
2022-12-04T03:57:32.173Z,100592.25
2022-12-04T04:00:06.848Z,100570.63
2022-12-04T04:02:37.791Z,100569.19
2022-12-04T04:05:10.359Z,100599.75
2022-12-04T04:07:43.636Z,100591.44
2022-12-04T04:10:15.805Z,100576.31
2022-12-04T04:13:10.623Z,100589.81
2022-12-04T04:16:03.507Z,100598.66
2022-12-04T04:18:51.006Z,100580.97
2022-12-04T04:21:40.495Z,100597.19
2022-12-04T04:24:15.644Z,100611.09
2022-12-04T04:26:45.162Z,100605.06
2022-12-04T04:29:13.465Z,100600.47
2022-12-04T04:31:49.925Z,100605.84
2022-12-04T04:34:23.352Z,100573.25
2022-12-04T04:36:57.417Z,100591.50
2022-12-04T04:39:32.717Z,100572.47
2022-12-04T04:42:08.251Z,100567.19
2022-12-04T04:44:46.178Z,100590.88
2022-12-04T04:47:21.842Z,100564.16
2022-12-04T04:49:53.313Z,100586.91
2022-12-04T04:52:25.248Z,100569.25
2022-12-04T04:54:53.194Z,100539.69
2022-12-04T04:57:29.249Z,100552.16
2022-12-04T04:59:57.471Z,100564.06
2022-12-04T05:02:28.604Z,100587.91
2022-12-04T05:04:56.802Z,100553.41
2022-12-04T05:07:24.623Z,100546.22
2022-12-04T05:09:53.048Z,100587.22
2022-12-04T05:12:23.700Z,100592.16
2022-12-04T05:14:52.250Z,100542.53
2022-12-04T05:17:20.329Z,100562.72
2022-12-04T05:19:55.829Z,100566.78
2022-12-04T05:22:26.376Z,100585.41
2022-12-04T05:24:55.234Z,100554.63
2022-12-04T05:27:24.149Z,100568.72
2022-12-04T05:29:53.946Z,100576.28
2022-12-04T05:32:22.827Z,100573.28
2022-12-04T05:34:54.023Z,100572.66
2022-12-04T05:37:21.884Z,100549.19
2022-12-04T05:39:49.806Z,100521.94
2022-12-04T05:42:18.338Z,100557.38
2022-12-04T05:44:46.135Z,100537.53
2022-12-04T05:47:13.854Z,100533.22
2022-12-04T05:49:42.187Z,100549.91
2022-12-04T05:52:11.649Z,100530.69
2022-12-04T05:54:40.589Z,100537.16
2022-12-04T05:57:08.405Z,100561.31
2022-12-04T05:59:36.567Z,100530.94
2022-12-04T06:02:04.529Z,100532.22
2022-12-04T06:04:32.749Z,100559.34
2022-12-04T06:07:00.465Z,100530.84
2022-12-04T06:09:30.095Z,100518.03
2022-12-04T06:11:59.137Z,100542.16
2022-12-04T06:14:27.689Z,100531.34
2022-12-04T06:16:55.493Z,100533.22
2022-12-04T06:19:24.691Z,100580.97
2022-12-04T06:21:54.397Z,100577.38
2022-12-04T06:24:24.903Z,100553.81
2022-12-04T06:27:26.128Z,100551.34
2022-12-04T06:29:46.062Z,100547.78
2022-12-04T06:32:19.683Z,100577.97
2022-12-04T06:34:53.149Z,100579.72
2022-12-04T06:37:21.528Z,100575.81
2022-12-04T06:39:49.914Z,100563.03
2022-12-04T06:42:19.591Z,100558.25
2022-12-04T06:44:47.905Z,100552.31
2022-12-04T06:47:15.637Z,100535.03
2022-12-04T06:49:44.044Z,100537.66
2022-12-04T06:52:26.425Z,100566.22
2022-12-04T06:54:54.823Z,100517.34
2022-12-04T06:57:24.260Z,100543.75
2022-12-04T06:59:52.103Z,100586.41
2022-12-04T07:02:20.643Z,100586.56
2022-12-04T07:04:48.613Z,100587.22
2022-12-04T07:07:16.951Z,100590.44
2022-12-04T07:09:46.816Z,100590.81
2022-12-04T07:12:15.372Z,100562.31
2022-12-04T07:14:45.241Z,100562.13
2022-12-04T07:17:13.268Z,100561.13
2022-12-04T07:19:41.813Z,100585.59
2022-12-04T07:22:09.897Z,100590.53
2022-12-04T07:24:38.867Z,100595.56
2022-12-04T07:27:06.645Z,100600.47
2022-12-04T07:29:34.936Z,100605.75
2022-12-04T07:32:04.518Z,100596.88
2022-12-04T07:34:32.526Z,100623.19
2022-12-04T07:37:01.538Z,100616.97
2022-12-04T07:39:30.028Z,100568.44
2022-12-04T07:41:58.809Z,100566.78
2022-12-04T07:44:27.495Z,100626.53
2022-12-04T07:46:55.923Z,100617.22
2022-12-04T07:49:25.727Z,100584.78
2022-12-04T07:51:55.364Z,100564.16
2022-12-04T07:54:24.001Z,100590.19
2022-12-04T07:56:52.593Z,100592.50
2022-12-04T07:59:21.039Z,100584.66
2022-12-04T08:01:50.581Z,100584.88
2022-12-04T08:04:19.169Z,100587.84
2022-12-04T08:06:50.299Z,100587.91
2022-12-04T08:09:19.400Z,100577.72
2022-12-04T08:11:48.118Z,100568.38
2022-12-04T08:14:25.779Z,100631.47
2022-12-04T08:16:55.153Z,100607.66
2022-12-04T08:19:24.611Z,100581.28
2022-12-04T08:21:57.332Z,100620.88
2022-12-04T08:24:26.464Z,100612.78
2022-12-04T08:27:11.750Z,100567.53
2022-12-04T08:29:47.427Z,100579.25
2022-12-04T08:32:34.605Z,100607.50
2022-12-04T08:35:38.638Z,100579.34
2022-12-04T08:48:17.256Z,100598.44
2022-12-04T08:50:56.768Z,100574.41
2022-12-04T08:53:43.537Z,100573.78
2022-12-04T08:56:16.299Z,100588.88
2022-12-04T08:58:50.300Z,100578.94
2022-12-04T09:01:25.170Z,100602.22
2022-12-04T09:04:07.019Z,100601.28
2022-12-04T09:06:38.416Z,100633.09
2022-12-04T09:09:20.174Z,100605.53
2022-12-04T09:12:04.505Z,100577.72
2022-12-04T09:14:38.357Z,100586.50
2022-12-04T09:17:15.207Z,100623.97
2022-12-04T09:23:02.420Z,100579.34
2022-12-04T09:25:35.978Z,100590.19
2022-12-04T09:28:16.441Z,100596.47
2022-12-04T09:30:54.972Z,100627.41
2022-12-04T09:33:34.171Z,100624.34
2022-12-04T09:36:10.742Z,100615.47
2022-12-04T09:42:05.543Z,100590.72
2022-12-04T09:44:59.089Z,100621.00
2022-12-04T09:47:40.320Z,100589.44
2022-12-04T09:50:24.374Z,100590.44
2022-12-04T09:53:06.516Z,100623.50
2022-12-04T09:55:47.038Z,100648.59
2022-12-04T09:58:25.649Z,100595.13
2022-12-04T10:01:10.504Z,100630.25
2022-12-04T10:03:45.142Z,100593.31
2022-12-04T10:06:22.638Z,100627.91
2022-12-04T10:09:10.255Z,100625.59
2022-12-04T10:11:53.284Z,100611.88
2022-12-04T10:14:57.513Z,100584.31
2022-12-04T10:18:05.771Z,100599.25
2022-12-04T10:21:01.739Z,100609.72
2022-12-04T10:23:42.522Z,100647.31
2022-12-04T10:26:21.717Z,100619.72
2022-12-04T10:29:06.513Z,100618.09
2022-12-04T10:31:50.652Z,100611.53
2022-12-04T10:34:31.577Z,100613.16
2022-12-04T10:37:16.910Z,100662.75
2022-12-04T10:40:00.850Z,100620.78
2022-12-04T10:42:40.295Z,100613.63
2022-12-04T10:45:16.548Z,100581.66
2022-12-04T10:47:53.324Z,100600.25
2022-12-04T10:50:34.500Z,100596.75
2022-12-04T10:53:13.737Z,100626.94
2022-12-04T10:55:50.106Z,100593.03
2022-12-04T10:58:25.040Z,100591.06
2022-12-04T11:01:13.791Z,100614.72
2022-12-04T11:04:08.541Z,100582.91
2022-12-04T11:06:44.953Z,100563.69
2022-12-04T11:09:32.481Z,100597.09
2022-12-04T11:15:17.059Z,100576.75
2022-12-04T11:18:16.453Z,100566.09
2022-12-04T11:21:03.898Z,100607.75
2022-12-04T11:30:03.953Z,100582.09
2022-12-04T11:32:55.114Z,100561.28
2022-12-04T11:35:47.143Z,100560.94
2022-12-04T11:38:46.843Z,100553.59
2022-12-04T11:41:55.335Z,100566.72
2022-12-04T11:56:38.534Z,100565.16
2022-12-04T11:59:52.900Z,100569.72
2022-12-04T12:03:04.336Z,100552.97
2022-12-04T12:09:19.981Z,100528.81
2022-12-04T12:12:17.879Z,100553.75
2022-12-04T12:15:21.685Z,100525.56
2022-12-04T12:18:34.129Z,100532.25
2022-12-04T12:21:48.610Z,100536.22
2022-12-04T12:24:51.552Z,100538.81
2022-12-04T12:28:00.407Z,100547.19
2022-12-04T12:31:20.735Z,100507.22
2022-12-04T12:37:12.916Z,100540.66
2022-12-04T12:43:22.441Z,100502.19
2022-12-04T12:46:51.002Z,100517.09
2022-12-04T13:12:08.435Z,100505.50
2022-12-04T13:38:25.532Z,100499.13
2022-12-04T13:41:19.217Z,100549.22
2022-12-04T13:44:44.933Z,100501.03
2022-12-04T13:50:42.624Z,100493.19
2022-12-04T13:53:54.286Z,100503.94
2022-12-04T13:56:48.003Z,100505.75
2022-12-04T13:59:43.352Z,100538.53
2022-12-04T14:02:49.033Z,100502.31
2022-12-04T14:05:40.468Z,100528.88
2022-12-04T14:08:50.997Z,100516.34
2022-12-04T14:11:37.741Z,100545.53
2022-12-04T14:14:43.234Z,100526.16
2022-12-04T14:17:35.000Z,100530.13
2022-12-04T14:20:11.876Z,100553.06
2022-12-04T14:22:45.779Z,100507.88
2022-12-04T14:25:42.000Z,100500.69
2022-12-04T14:28:42.034Z,100506.22
2022-12-04T14:31:28.367Z,100531.16
2022-12-04T14:34:12.440Z,100540.16
2022-12-04T14:36:55.981Z,100509.84
2022-12-04T14:39:35.746Z,100506.88
2022-12-04T14:42:33.314Z,100564.47
2022-12-04T14:45:23.867Z,100504.53
2022-12-04T14:48:14.514Z,100518.50
2022-12-04T14:51:03.167Z,100516.09
2022-12-04T14:53:47.319Z,100515.38
2022-12-04T14:56:45.246Z,100536.38
2022-12-04T14:59:24.723Z,100538.00
2022-12-04T15:02:12.772Z,100521.91
2022-12-04T15:04:47.548Z,100550.28
2022-12-04T15:07:38.321Z,100552.41
2022-12-04T15:10:38.760Z,100534.31
2022-12-04T15:13:18.590Z,100542.91
2022-12-04T15:15:50.141Z,100542.53
2022-12-04T15:18:19.164Z,100529.28
2022-12-04T15:20:58.911Z,100553.78
2022-12-04T15:23:32.581Z,100555.75
2022-12-04T15:26:03.859Z,100564.59
2022-12-04T15:28:37.518Z,100570.34
2022-12-04T15:31:12.008Z,100557.69
2022-12-04T15:33:41.939Z,100555.69
2022-12-04T15:36:16.085Z,100609.91
2022-12-04T15:38:46.484Z,100576.38
2022-12-04T15:41:35.856Z,100600.94
2022-12-04T15:44:05.133Z,100548.88
2022-12-04T15:46:35.303Z,100614.97
2022-12-04T15:49:09.139Z,100569.19
2022-12-04T15:51:37.404Z,100612.78
2022-12-04T15:54:17.361Z,100595.91
2022-12-04T15:56:45.502Z,100590.63
2022-12-04T15:59:19.379Z,100583.69
2022-12-04T16:01:47.643Z,100597.19
2022-12-04T16:04:23.694Z,100572.50
2022-12-04T16:06:53.836Z,100603.16
2022-12-04T16:09:26.140Z,100575.78
2022-12-04T16:12:02.329Z,100575.03
2022-12-04T16:14:31.202Z,100572.47
2022-12-04T16:17:06.395Z,100583.31
2022-12-04T16:19:37.591Z,100565.91
2022-12-04T16:22:12.922Z,100598.78
2022-12-04T16:24:43.687Z,100588.16
2022-12-04T16:27:14.033Z,100598.44
2022-12-04T16:29:42.687Z,100583.88
2022-12-04T16:32:12.814Z,100580.88
2022-12-04T16:34:41.212Z,100600.53
2022-12-04T16:37:14.435Z,100556.78
2022-12-04T16:39:44.642Z,100559.03
2022-12-04T16:42:18.015Z,100581.88
2022-12-04T16:44:47.072Z,100585.84
2022-12-04T16:47:16.549Z,100609.31
2022-12-04T16:49:46.152Z,100560.09
2022-12-04T16:52:15.457Z,100546.97
2022-12-04T16:54:45.030Z,100582.66
2022-12-04T16:57:13.731Z,100590.25
2022-12-04T16:59:43.057Z,100600.13
2022-12-04T17:02:19.332Z,100599.84
2022-12-04T17:04:51.449Z,100565.69
2022-12-04T17:07:23.001Z,100574.28
2022-12-04T17:09:53.512Z,100595.41
2022-12-04T17:12:21.637Z,100600.72
2022-12-04T17:14:50.237Z,100617.47
2022-12-04T17:17:18.669Z,100595.59
2022-12-04T17:19:47.988Z,100599.59
2022-12-04T17:22:17.127Z,100579.66
2022-12-04T17:24:55.744Z,100575.69
2022-12-04T17:27:26.776Z,100570.63
2022-12-04T17:29:55.177Z,100608.13
2022-12-04T17:32:23.512Z,100627.22
2022-12-04T17:34:54.404Z,100625.25
2022-12-04T17:37:23.512Z,100599.19
2022-12-04T17:39:51.838Z,100618.56
2022-12-04T17:42:20.834Z,100606.25
2022-12-04T17:44:50.522Z,100616.06
2022-12-04T17:47:19.043Z,100601.50
2022-12-04T17:49:47.505Z,100633.50
2022-12-04T17:52:16.288Z,100619.75
2022-12-04T17:54:44.367Z,100666.31
2022-12-04T17:57:12.681Z,100619.38
2022-12-04T17:59:41.451Z,100633.16
2022-12-04T18:02:12.138Z,100667.97
2022-12-04T18:04:40.573Z,100648.50
2022-12-04T18:07:09.441Z,100670.44
2022-12-04T18:09:37.858Z,100669.34
2022-12-04T18:12:06.532Z,100645.72
2022-12-04T18:14:35.278Z,100659.69
2022-12-04T18:17:04.428Z,100630.00
2022-12-04T18:19:34.319Z,100616.88
2022-12-04T18:22:02.269Z,100649.28
2022-12-04T18:24:30.878Z,100617.88
2022-12-04T18:26:58.733Z,100658.00
2022-12-04T18:29:28.592Z,100657.75
2022-12-04T18:31:56.709Z,100649.50
2022-12-04T18:34:25.222Z,100598.94
2022-12-04T18:36:54.504Z,100617.91
2022-12-04T18:39:24.586Z,100648.44
2022-12-04T18:41:55.223Z,100626.44
2022-12-04T18:44:23.658Z,100654.59
2022-12-04T18:46:51.574Z,100628.00
2022-12-04T18:49:20.321Z,100649.00
2022-12-04T18:51:50.222Z,100653.69
2022-12-04T18:54:22.412Z,100612.88
2022-12-04T18:56:50.994Z,100636.06
2022-12-04T18:59:21.044Z,100668.22
2022-12-04T19:01:50.265Z,100649.06
2022-12-04T19:04:19.913Z,100659.56
2022-12-04T19:06:50.185Z,100628.22
2022-12-04T19:09:35.486Z,100670.09
2022-12-04T19:12:10.788Z,100647.75
2022-12-04T19:14:39.985Z,100649.25
2022-12-04T19:17:08.235Z,100664.31
2022-12-04T19:19:36.445Z,100676.22
2022-12-04T19:22:04.616Z,100650.13
2022-12-04T19:24:34.272Z,100635.03
2022-12-04T19:27:10.041Z,100616.53
2022-12-04T19:29:38.307Z,100672.28
2022-12-04T19:32:06.554Z,100683.78
2022-12-04T19:34:34.633Z,100652.59
2022-12-04T19:37:03.255Z,100650.50
2022-12-04T19:39:31.183Z,100679.84
2022-12-04T19:42:00.587Z,100670.22
2022-12-04T19:47:16.753Z,100657.81
2022-12-04T19:49:44.866Z,100699.84
2022-12-04T19:52:12.931Z,100685.53
2022-12-04T19:54:40.900Z,100678.75
2022-12-04T19:57:10.557Z,100688.88
2022-12-04T19:59:43.059Z,100683.16
2022-12-04T20:02:14.012Z,100673.81
2022-12-04T20:04:43.241Z,100697.47
2022-12-04T20:07:11.581Z,100698.13
2022-12-04T20:09:39.561Z,100691.56
2022-12-04T20:12:08.044Z,100673.81
2022-12-04T20:14:37.472Z,100659.69
2022-12-04T20:17:05.586Z,100682.00
2022-12-04T20:19:33.643Z,100668.63
2022-12-04T20:22:01.721Z,100679.75
2022-12-04T20:24:29.628Z,100708.00
2022-12-04T20:26:57.936Z,100685.31
2022-12-04T20:29:26.092Z,100674.03
2022-12-04T20:31:55.627Z,100679.47
2022-12-04T20:34:23.909Z,100687.88
2022-12-04T20:36:52.116Z,100667.66
2022-12-04T20:39:21.511Z,100638.53
2022-12-04T20:41:49.817Z,100695.34
2022-12-04T20:44:20.259Z,100676.75
2022-12-04T20:46:48.854Z,100681.81
2022-12-04T20:49:22.666Z,100713.69
2022-12-04T20:51:52.543Z,100690.91
2022-12-04T20:54:22.843Z,100680.53
2022-12-04T20:56:53.350Z,100684.06
2022-12-04T20:59:23.257Z,100694.09
2022-12-04T21:01:52.696Z,100655.03
2022-12-04T21:04:22.592Z,100696.91
2022-12-04T21:06:50.541Z,100714.94
2022-12-04T21:09:21.031Z,100683.78
2022-12-04T21:11:50.974Z,100694.63
2022-12-04T21:14:38.261Z,100678.50
2022-12-04T21:17:09.678Z,100717.75
2022-12-04T21:19:39.529Z,100685.88
2022-12-04T21:22:07.689Z,100700.81
2022-12-04T21:24:38.793Z,100689.03
2022-12-04T21:27:08.043Z,100706.06
2022-12-04T21:29:36.834Z,100700.50
2022-12-04T21:32:05.546Z,100679.47
2022-12-04T21:34:34.370Z,100657.75
2022-12-04T21:37:03.753Z,100678.41
2022-12-04T21:39:32.343Z,100676.50
2022-12-04T21:42:17.461Z,100707.00
2022-12-04T21:44:45.895Z,100690.81
2022-12-04T21:47:14.073Z,100667.00
2022-12-04T21:49:41.985Z,100663.03
2022-12-04T21:52:12.043Z,100659.69
2022-12-04T21:54:40.089Z,100673.06
2022-12-04T21:57:08.599Z,100689.69
2022-12-04T21:59:36.583Z,100681.31
2022-12-04T22:02:04.678Z,100680.19
2022-12-04T22:04:33.131Z,100670.03
2022-12-04T22:07:01.176Z,100684.63
2022-12-04T22:09:31.071Z,100678.47
2022-12-04T22:11:59.004Z,100659.09
2022-12-04T22:14:27.553Z,100654.84
2022-12-04T22:16:55.747Z,100697.38
2022-12-04T22:19:23.819Z,100653.09
2022-12-04T22:21:52.092Z,100684.28
2022-12-04T22:24:20.037Z,100618.03
2022-12-04T22:26:50.055Z,100647.50
2022-12-04T22:29:48.424Z,100660.97
2022-12-04T22:32:06.399Z,100680.69
2022-12-04T22:34:34.601Z,100658.53
2022-12-04T22:37:03.054Z,100706.44
2022-12-04T22:39:33.589Z,100643.97
2022-12-04T22:42:03.494Z,100674.13
2022-12-04T22:44:31.541Z,100683.66
2022-12-04T22:46:59.544Z,100643.09
2022-12-04T22:49:28.007Z,100712.50
2022-12-04T22:51:56.139Z,100707.59
2022-12-04T22:54:24.653Z,100680.97
2022-12-04T22:56:52.750Z,100691.78
2022-12-04T22:59:22.810Z,100703.28
2022-12-04T23:01:50.982Z,100654.53
2022-12-04T23:04:19.430Z,100700.13
2022-12-04T23:06:47.535Z,100695.06
2022-12-04T23:09:18.014Z,100716.19
2022-12-04T23:11:46.373Z,100700.59
2022-12-04T23:14:16.667Z,100702.19
2022-12-04T23:16:46.280Z,100694.00
2022-12-04T23:19:20.675Z,100702.97
2022-12-04T23:21:55.161Z,100697.38
2022-12-04T23:24:25.458Z,100710.53
2022-12-04T23:26:54.237Z,100730.88
2022-12-04T23:29:51.499Z,100659.34
2022-12-04T23:32:12.525Z,100722.13
2022-12-04T23:34:41.351Z,100707.69
2022-12-04T23:37:09.384Z,100691.28
2022-12-04T23:39:37.783Z,100717.53
2022-12-04T23:42:05.795Z,100691.19
2022-12-04T23:44:34.330Z,100657.19
2022-12-04T23:47:02.424Z,100718.38
2022-12-04T23:49:32.386Z,100680.56
2022-12-04T23:52:00.553Z,100684.06
2022-12-04T23:54:35.343Z,100661.44
2022-12-04T23:57:03.579Z,100696.25
2022-12-04T23:59:31.494Z,100687.22
